ADDS METAR Data INFO
IDs: Format: Raw Decoded Include TAF

Data at: 0740 UTC 21 Jul 2018

PASN 210737Z AUTO 15010KT 9SM BKN007 OVC021 09/09 A2995 RMK AO2 RAE37 P0001 T00890089 TSNO
PASN 210713Z AUTO 15012KT 10SM -RA FEW007 BKN021 OVC041 09/09 A2995 RMK AO2 P0001 T00890089 TSNO
PASN 210653Z AUTO 14012KT 7SM -RA BKN043 OVC050 09/09 A2994 RMK AO2 SLP140 P0001 T00890089 TSNO
PASN 210553Z AUTO 14012KT 5SM -RA BR FEW021 SCT046 OVC060 09/09 A2994 RMK AO2 RAB17 SLP139 P0000 60000 T00890089 10111 20089 56004 TSNO
PASN 210524Z AUTO 14012KT 10SM -RA SCT028 BKN041 OVC065 09/09 A2994 RMK AO2 RAB17 P0000 T00940089 TSNO
PASN 210502Z AUTO 14011KT 10SM OVC028 09/09 A2994 RMK AO2 T00940089 TSNO
PASN 210453Z AUTO 14012KT 10SM OVC030 09/09 A2994 RMK SLP140 T00940089 TSNO VIA AUTODIAL
PASN 210353Z AUTO 14011KT 10SM OVC034 10/09 A2995 RMK AO2 SLP142 T01000094 TSNO
PASN 210253Z AUTO 14013KT 9SM OVC034 11/09 A2995 RMK AO2 SLP143 T01060094 56008 TSNO
PASN 210153Z AUTO 13010KT 10SM OVC037 11/09 A2995 RMK AO2 SLP144 T01060094 TSNO
PASN 210053Z AUTO 13012KT 10SM OVC035 10/09 A2996 RMK AO2 SLP146 T01000094 TSNO
PASN 202353Z AUTO 14012KT 10SM OVC035 11/10 A2998 RMK AO2 SLP151 T01110100 10122 20089 58006 TSNO
PASN 202253Z AUTO 13013KT 8SM BKN042 11/09 A2998 RMK AO2 SLP153 T01110089 TSNO
PASN 202153Z AUTO 13011KT 9SM SCT005 OVC039 11/10 A3000 RMK AO2 SLP158 T01110100 TSNO
PASN 202053Z AUTO 12013KT 9SM FEW005 OVC044 11/09 A2999 RMK AO2 SLP157 T01060094 56009 TSNO
PASN 202010Z AUTO 12013KT 10SM SCT006 OVC050 11/10 A3000 RMK AO2 T01060100 TSNO
PASN 201953Z AUTO 12012KT 10SM BKN006 OVC050 10/09 A3000 RMK AO2 SLP158 T01000094 TSNO
PASN 201922Z AUTO 12011KT 10SM BKN007 OVC047 10/09 A3000 RMK AO2 T01000094 TSNO
PASN 201913Z AUTO 12012KT 7SM SCT007 OVC047 10/09 A3001 RMK AO2 T01000094 TSNO
PASN 201853Z AUTO 11010KT 10SM OVC047 09/09 A3001 RMK AO2 SLP163 T00940089 TSNO
PASN 201835Z AUTO 11011KT 9SM FEW006 OVC047 09/09 A3001 RMK AO2 T00890089 TSNO
PASN 201753Z AUTO 10009KT 9SM OVC046 09/09 A3002 RMK AO2 SLP167 T00890089 10089 20083 55005 TSNO
PASN 201708Z AUTO 11010KT 9SM FEW003 OVC045 09/09 A3002 RMK AO2 T00890089 TSNO
PASN 201653Z AUTO 10011KT 8SM OVC045 09/09 A3002 RMK AO2 SLP165 T00890089 TSNO
PASN 201553Z AUTO 12009KT 10SM FEW002 OVC045 09/09 A3003 RMK AO2 SLP169 T00890089 TSNO
PASN 201510Z AUTO 10009KT 10SM FEW003 OVC045 08/08 A3004 RMK AO2 T00830083 TSNO
PASN 201453Z AUTO 10008KT 10SM OVC045 08/08 A3004 RMK AO2 SLP171 T00830083 58014 TSNO
PASN 201353Z AUTO 10005KT 10SM OVC044 08/08 A3005 RMK AO2 SLP178 T00830083 TSNO
PASN 201253Z AUTO 12007KT 10SM SCT030 OVC047 09/09 A3006 RMK AO2 SLP181 T00890089 TSNO
PASN 201241Z AUTO 12007KT 10SM FEW002 BKN030 OVC047 09/09 A3007 RMK AO2 T00890089 TSNO
PASN 201205Z AUTO 12008KT 9SM SCT002 OVC029 09/09 A3007 RMK AO2 T00890089 TSNO
PASN 201153Z AUTO 11009KT 8SM BKN002 OVC029 09/09 A3008 RMK AO2 SLP185 T00890089 10094 20083 58011 TSNO
PASN 201143Z AUTO 11007KT 8SM BKN002 OVC029 09/09 A3008 RMK AO2 T00890089 TSNO
PASN 201123Z AUTO 10006KT 9SM FEW001 BKN029 OVC039 09/09 A3009 RMK AO2 T00890089 TSNO
PASN 201053Z AUTO 12005KT 9SM SCT001 OVC047 09/09 A3009 RMK AO2 SLP190 T00890089 TSNO
PASN 200953Z AUTO 10006KT 8SM SCT001 OVC047 09/09 A3010 RMK AO2 SLP193 T00890089 TSNO
PASN 200941Z AUTO 10007KT 8SM FEW002 OVC046 09/09 A3010 RMK AO2 T00890089 TSNO
PASN 200853Z AUTO 10006KT 8SM OVC044 09/09 A3011 RMK AO2 SLP196 T00890089 401280050 56004 TSNO
PASN 200753Z AUTO 10008KT 8SM OVC045 09/09 A3011 RMK AO2 SLP197 T00890089 TSNO
PASN 200653Z AUTO 09009KT 10SM FEW027 OVC047 09/09 A3012 RMK AO2 SLP198 T00940089 TSNO
PASN 200641Z AUTO 10008KT 9SM SCT027 OVC048 09/09 A3012 RMK AO2 T00940089 TSNO
PASN 200553Z AUTO 09009KT 9SM OVC027 09/09 A3012 RMK AO2 SLP200 T00940089 10117 20089 57005 TSNO
PASN 200513Z AUTO 09007KT 7SM SCT002 BKN022 OVC027 09/09 A3013 RMK AO2 T00940089 TSNO
PASN 200453Z AUTO 09008KT 10SM OVC029 10/09 A3013 RMK AO2 SLP202 T01000089 TSNO
PASN 200401Z AUTO 11008KT 8SM FEW002 BKN029 OVC050 11/09 A3013 RMK AO2 T01060094 TSNO
PASN 200353Z AUTO 11008KT 9SM SCT029 BKN038 OVC050 11/10 A3013 RMK AO2 SLP204 T01110100 TSNO
PASN 200344Z AUTO 12007KT 10SM SCT006 BKN038 OVC050 11/10 A3013 RMK AO2 T01060100 TSNO
PASN 200331Z AUTO 09008KT 10SM BKN006 OVC037 11/09 A3014 RMK AO2 CIG 003V008 T01110094 TSNO
PASN 200253Z AUTO 10007KT 5SM BR BKN002 OVC038 11/10 A3014 RMK AO2 SLP206 T01110100 58002 TSNO
PASN 200229Z AUTO 12005KT 3SM BR BKN002 OVC036 11/10 A3014 RMK AO2 T01110100 TSNO
PASN 200153Z AUTO 12005KT 1 1/4SM BR BKN002 OVC015 10/09 A3014 RMK AO2 SLP207 T01000094 TSNO
PASN 200132Z AUTO 13006KT 3SM BR BKN002 OVC013 11/10 A3014 RMK AO2 T01060100 TSNO
PASN 200113Z AUTO 11007KT 5SM BR SCT003 BKN013 11/09 A3014 RMK AO2 T01060094 TSNO
PASN 200053Z AUTO 11008KT 9SM BKN005 11/09 A3014 RMK AO2 SLP208 T01110094 TSNO
PASN 200002Z AUTO 12007KT 10SM BKN006 12/10 A3015 RMK AO2 T01170100 TSNO
PASN 192353Z AUTO 11008KT 10SM SCT006 12/10 A3014 RMK AO2 SLP208 T01170100 10128 20100 55000 TSNO
PASN 192350Z AUTO 12008KT 10SM SCT006 12/10 A3014 RMK AO2 TSNO
PASN 192321Z AUTO 11007KT 10SM OVC005 12/10 A3014 RMK AO2 T01170100 TSNO
PASN 192253Z AUTO 10008KT 10SM OVC004 12/10 A3014 RMK AO2 SLP208 T01170100 TSNO
PASN 192225Z AUTO 10008KT 10SM BKN006 BKN041 11/10 A3015 RMK AO2 CIG 004V009 T01110100 TSNO
PASN 192216Z AUTO 10008KT 10SM SCT006 SCT010 OVC043 12/11 A3015 RMK AO2 T01220106 TSNO
PASN 192153Z AUTO 11007KT 10SM BKN006 OVC043 12/11 A3015 RMK AO2 SLP208 T01170106 TSNO
PASN 192102Z AUTO 08009KT 10SM BKN005 OVC049 11/09 A3014 RMK AO2 T01060094 TSNO
PASN 192053Z AUTO 08008KT 10SM SCT005 BKN049 OVC060 11/09 A3015 RMK AO2 SLP208 T01110094 53001 TSNO
PASN 192042Z AUTO 10009KT 10SM FEW005 BKN050 OVC060 11/10 A3014 RMK AO2 T01110100 TSNO
PASN 191953Z AUTO 09008KT 10SM OVC055 11/09 A3014 RMK AO2 SLP207 T01060094 TSNO